Time;durP1;ratioP1;P1;durP2;ratioP2;P2;SDS_P1;SDS_P2;PMS_P1;PMS_P2;Temp;Humidity;BMP_temperature;BMP_pressure;BME280_temperature;BME280_humidity;BME280_pressure;Samples;Min_cycle;Max_cycle;Signal;HPM_P1;HPM_P2
2022/04/03 00:01:49;;;;;;;3.67;3.27;;;-0.80;99.90;;;;;;5034709;28;20194;-62
2022/04/03 00:04:18;;;;;;;6.57;3.63;;;-0.90;99.90;;;;;;5027454;28;20197;-61
2022/04/03 00:06:46;;;;;;;5.13;3.80;;;-0.90;99.90;;;;;;5013817;28;20296;-61
2022/04/03 00:09:15;;;;;;;7.57;3.87;;;-0.90;99.90;;;;;;5029875;28;20209;-61
2022/04/03 00:11:45;;;;;;;3.67;3.37;;;-1.00;99.90;;;;;;5033654;28;20190;-62
2022/04/03 00:14:16;;;;;;;4.37;3.53;;;-1.10;99.90;;;;;;5027507;28;20219;-62
2022/04/03 00:16:45;;;;;;;3.87;3.50;;;-1.10;99.90;;;;;;5034290;28;20217;-61
2022/04/03 00:19:13;;;;;;;5.77;3.80;;;-1.10;99.90;;;;;;5033798;28;20233;-62
2022/04/03 00:21:42;;;;;;;4.40;3.40;;;-1.10;99.90;;;;;;5032218;28;20263;-62
2022/04/03 00:24:10;;;;;;;5.90;3.90;;;-1.10;99.90;;;;;;5030293;28;20229;-62
2022/04/03 00:26:39;;;;;;;4.50;3.67;;;-1.10;99.90;;;;;;5029518;28;21681;-61
2022/04/03 00:29:08;;;;;;;5.10;3.97;;;-1.20;99.90;;;;;;5033987;28;20549;-61
2022/04/03 00:31:37;;;;;;;4.77;4.00;;;-1.20;99.90;;;;;;5017060;28;20227;-61
2022/04/03 00:34:06;;;;;;;3.97;3.67;;;-1.20;99.90;;;;;;5034582;28;20193;-61
2022/04/03 00:36:34;;;;;;;8.07;3.70;;;-1.20;99.90;;;;;;5030288;28;20290;-61
2022/04/03 00:39:03;;;;;;;5.37;4.07;;;-1.30;99.90;;;;;;5028349;28;20197;-61
2022/04/03 00:41:32;;;;;;;5.50;4.40;;;-1.30;99.90;;;;;;5031400;28;20207;-61
2022/04/03 00:44:00;;;;;;;11.23;4.43;;;-1.30;99.90;;;;;;5033414;28;20244;-61
2022/04/03 00:46:34;;;;;;;5.47;4.03;;;-1.30;99.90;;;;;;5033897;28;20332;-61
2022/04/03 00:49:02;;;;;;;5.13;4.57;;;-1.40;99.90;;;;;;5000218;28;20207;-61
2022/04/03 00:51:32;;;;;;;4.80;4.00;;;-1.40;99.90;;;;;;5038938;28;20189;-61
2022/04/03 00:54:02;;;;;;;6.67;3.93;;;-1.50;99.90;;;;;;5031155;28;20272;-62
2022/04/03 00:56:32;;;;;;;6.87;4.10;;;-1.50;99.90;;;;;;5022175;28;20198;-62
2022/04/03 00:59:00;;;;;;;4.57;3.63;;;-1.50;99.90;;;;;;5031328;28;20647;-61
2022/04/03 01:01:30;;;;;;;5.27;4.23;;;-1.60;99.90;;;;;;5034020;28;20215;-62
2022/04/03 01:04:00;;;;;;;5.30;4.43;;;-1.60;99.90;;;;;;5029130;28;20216;-62
2022/04/03 01:06:29;;;;;;;9.00;4.50;;;-1.60;99.90;;;;;;5034220;28;20199;-62
2022/04/03 01:08:58;;;;;;;4.97;4.00;;;-1.60;99.90;;;;;;5027794;28;20208;-62
2022/04/03 01:11:26;;;;;;;4.40;3.67;;;-1.60;99.90;;;;;;5028895;28;20204;-61
2022/04/03 01:13:58;;;;;;;8.43;3.90;;;-1.70;99.90;;;;;;5027659;28;20190;-62
2022/04/03 01:16:26;;;;;;;4.03;3.67;;;-1.70;99.90;;;;;;5027952;28;20201;-62
2022/04/03 01:18:56;;;;;;;5.07;3.77;;;-1.70;99.90;;;;;;5007645;28;20272;-61
2022/04/03 01:21:24;;;;;;;5.43;3.93;;;-1.80;99.90;;;;;;5030627;28;20200;-62
2022/04/03 01:23:54;;;;;;;5.93;3.80;;;-1.80;99.90;;;;;;5034364;28;20225;-62
2022/04/03 01:26:24;;;;;;;4.63;3.33;;;-1.80;99.90;;;;;;5032941;28;20237;-62
2022/04/03 01:28:52;;;;;;;6.13;4.10;;;-1.80;99.90;;;;;;5035423;28;20224;-62
2022/04/03 01:31:21;;;;;;;5.33;3.73;;;-1.90;99.90;;;;;;5028366;28;20198;-62
2022/04/03 01:33:50;;;;;;;5.03;3.33;;;-1.90;99.90;;;;;;5015509;28;20184;-62
2022/04/03 01:36:18;;;;;;;5.17;4.13;;;-1.90;99.90;;;;;;5028233;28;20209;-62
2022/04/03 01:38:47;;;;;;;4.97;4.17;;;-1.90;99.90;;;;;;5030097;28;20203;-62
2022/04/03 01:41:15;;;;;;;7.67;4.27;;;-1.90;99.90;;;;;;5029613;28;20284;-62
2022/04/03 01:43:45;;;;;;;4.00;3.70;;;-1.90;99.90;;;;;;5028693;28;20219;-62
2022/04/03 01:46:15;;;;;;;3.90;3.60;;;-2.00;99.90;;;;;;5015701;28;20279;-62
2022/04/03 01:48:44;;;;;;;4.00;3.70;;;-2.00;99.90;;;;;;5028282;28;20198;-62
2022/04/03 01:51:12;;;;;;;3.80;3.50;;;-2.00;99.90;;;;;;5030493;28;20202;-62
2022/04/03 01:53:41;;;;;;;3.93;3.63;;;-2.00;99.90;;;;;;5020023;28;20237;-62
2022/04/03 01:56:09;;;;;;;4.30;3.90;;;-2.00;99.90;;;;;;5037869;28;20304;-62
2022/04/03 01:58:38;;;;;;;3.70;3.50;;;-2.10;99.90;;;;;;5032791;28;20233;-62
2022/04/03 02:01:08;;;;;;;8.27;3.80;;;-2.10;99.90;;;;;;5032914;28;20283;-62
2022/04/03 02:03:36;;;;;;;4.63;3.80;;;-2.10;99.90;;;;;;5034193;28;20255;-62
2022/04/03 02:06:05;;;;;;;6.37;3.90;;;-2.10;99.90;;;;;;5032619;28;20193;-62
2022/04/03 02:08:34;;;;;;;4.07;3.57;;;-2.10;99.90;;;;;;5032795;28;20201;-62
2022/04/03 02:11:02;;;;;;;3.97;3.73;;;-2.20;99.90;;;;;;5032836;28;20217;-61
2022/04/03 02:13:31;;;;;;;8.40;6.00;;;-2.20;99.90;;;;;;5032307;28;20192;-61
2022/04/03 02:15:59;;;;;;;6.20;4.93;;;-2.30;99.90;;;;;;5030632;28;20194;-61
2022/04/03 02:18:29;;;;;;;10.70;4.80;;;-2.30;99.90;;;;;;5036549;28;20215;-62
2022/04/03 02:20:57;;;;;;;6.77;4.83;;;-2.30;99.90;;;;;;5032850;28;20453;-62
2022/04/03 02:23:25;;;;;;;4.40;4.00;;;-2.30;99.90;;;;;;5021218;28;20196;-62
2022/04/03 02:25:54;;;;;;;7.50;4.40;;;-2.30;99.90;;;;;;5037532;28;20232;-62
2022/04/03 02:28:22;;;;;;;6.33;4.50;;;-2.30;99.90;;;;;;5026293;28;20197;-62
2022/04/03 02:30:51;;;;;;;6.97;4.83;;;-2.30;99.90;;;;;;5034449;28;20197;-61
2022/04/03 02:33:19;;;;;;;6.37;3.70;;;-2.30;99.90;;;;;;5032567;28;20208;-61
2022/04/03 02:35:50;;;;;;;4.07;3.73;;;-2.40;99.90;;;;;;5007956;28;20474;-62
2022/04/03 02:38:18;;;;;;;5.70;3.33;;;-2.40;99.90;;;;;;5031212;28;20205;-62
2022/04/03 02:40:47;;;;;;;4.37;3.57;;;-2.40;99.90;;;;;;5034422;28;20291;-61
2022/04/03 02:43:15;;;;;;;5.27;3.57;;;-2.40;99.90;;;;;;5035303;28;20224;-61
2022/04/03 02:45:44;;;;;;;7.83;3.83;;;-2.40;99.90;;;;;;5031367;28;20721;-62
2022/04/03 02:48:13;;;;;;;5.77;3.83;;;-2.50;99.90;;;;;;5033996;28;20192;-61
2022/04/03 02:50:42;;;;;;;4.47;3.83;;;-2.50;99.90;;;;;;5015563;28;20289;-61
2022/04/03 02:53:12;;;;;;;5.73;3.60;;;-2.50;99.90;;;;;;5031690;28;20551;-62
2022/04/03 02:55:40;;;;;;;7.10;4.27;;;-2.50;99.90;;;;;;5035322;28;20284;-61
2022/04/03 02:58:08;;;;;;;4.60;3.80;;;-2.50;99.90;;;;;;5035064;28;20219;-61
2022/04/03 03:00:37;;;;;;;8.03;4.37;;;-2.50;99.90;;;;;;5033933;28;20593;-61
2022/04/03 03:03:07;;;;;;;6.20;3.90;;;-2.40;99.90;;;;;;5031696;28;20276;-61
2022/04/03 03:05:35;;;;;;;6.03;3.70;;;-2.40;99.90;;;;;;5035663;28;20555;-61
2022/04/03 03:08:05;;;;;;;4.53;4.13;;;-2.30;99.90;;;;;;5014277;28;20198;-61
2022/04/03 03:10:35;;;;;;;6.40;4.00;;;-2.30;99.90;;;;;;5035012;28;20214;-61
2022/04/03 03:13:03;;;;;;;4.40;4.00;;;-2.20;99.90;;;;;;5036392;28;20201;-61
2022/04/03 03:15:31;;;;;;;4.47;4.10;;;-2.20;99.90;;;;;;5035907;28;20280;-61
2022/04/03 03:18:00;;;;;;;4.53;4.13;;;-2.10;99.90;;;;;;5035796;28;20258;-61
2022/04/03 03:20:28;;;;;;;6.97;4.83;;;-2.10;99.90;;;;;;5036548;28;20618;-61
2022/04/03 03:22:57;;;;;;;7.57;4.67;;;-2.10;99.90;;;;;;5034358;28;20563;-61
2022/04/03 03:25:28;;;;;;;4.80;4.40;;;-2.00;99.90;;;;;;5036483;28;20593;-61
2022/04/03 03:27:58;;;;;;;7.13;4.40;;;-2.00;99.90;;;;;;5013685;28;20196;-61
2022/04/03 03:30:26;;;;;;;5.53;4.53;;;-1.90;99.90;;;;;;5032263;28;20743;-61
2022/04/03 03:32:55;;;;;;;5.90;4.23;;;-1.90;99.90;;;;;;5031165;28;20276;-61
2022/04/03 03:35:23;;;;;;;5.60;4.77;;;-1.90;99.90;;;;;;5038964;28;20619;-62
2022/04/03 03:37:52;;;;;;;6.77;4.30;;;-1.80;99.90;;;;;;5031031;28;20300;-61
2022/04/03 03:40:20;;;;;;;7.50;4.57;;;-1.80;99.90;;;;;;5032722;28;20555;-61
2022/04/03 03:42:56;;;;;;;6.30;4.47;;;-1.70;99.90;;;;;;5011656;28;20203;-61
2022/04/03 03:45:26;;;;;;;6.27;4.43;;;-1.60;99.90;;;;;;5031395;28;20221;-61
2022/04/03 03:47:57;;;;;;;6.50;4.43;;;-1.60;99.90;;;;;;5014726;28;20621;-61
2022/04/03 03:50:26;;;;;;;11.53;4.43;;;-1.50;99.90;;;;;;5032924;28;20311;-61
2022/04/03 03:52:54;;;;;;;6.80;4.43;;;-1.50;99.90;;;;;;5033306;28;20730;-62
2022/04/03 03:55:24;;;;;;;4.80;4.40;;;-1.50;99.90;;;;;;5036072;28;20542;-61
2022/04/03 03:57:52;;;;;;;7.13;4.37;;;-1.40;99.90;;;;;;5042821;28;20758;-62
2022/04/03 04:00:20;;;;;;;5.40;4.30;;;-1.40;99.90;;;;;;5032031;28;20594;-61
2022/04/03 04:03:14;;;;;;;7.77;4.10;;;-1.40;99.90;;;;;;5030709;28;20571;-62
2022/04/03 04:05:43;;;;;;;5.33;4.67;;;-1.30;99.90;;;;;;5010512;28;20296;-61
2022/04/03 04:08:11;;;;;;;6.13;4.53;;;-1.20;99.90;;;;;;5009031;28;20208;-61
2022/04/03 04:10:39;;;;;;;5.57;4.03;;;-1.20;99.90;;;;;;5013293;28;20284;-61
2022/04/03 04:13:08;;;;;;;5.00;4.60;;;-1.20;99.90;;;;;;5008426;28;20284;-61
2022/04/03 04:15:37;;;;;;;5.97;4.63;;;-1.20;99.90;;;;;;5033193;28;20217;-62
2022/04/03 04:18:05;;;;;;;7.57;4.67;;;-1.20;99.90;;;;;;5033609;28;20213;-61
2022/04/03 04:20:36;;;;;;;4.70;4.30;;;-1.20;99.90;;;;;;5039559;28;20291;-61
2022/04/03 04:23:04;;;;;;;7.77;4.90;;;-1.20;99.90;;;;;;4993439;28;20280;-62
2022/04/03 04:25:32;;;;;;;9.07;5.00;;;-1.20;99.90;;;;;;5016634;28;20606;-61
2022/04/03 04:28:01;;;;;;;7.27;4.40;;;-1.20;99.90;;;;;;5014700;28;20611;-61
2022/04/03 04:30:29;;;;;;;5.90;4.97;;;-1.20;99.90;;;;;;5035776;28;20963;-61
2022/04/03 04:32:58;;;;;;;7.43;4.60;;;-1.30;99.90;;;;;;5019601;28;20554;-62
2022/04/03 04:35:27;;;;;;;6.20;4.90;;;-1.30;99.90;;;;;;5036604;28;20272;-61
2022/04/03 04:37:57;;;;;;;5.93;4.67;;;-1.30;99.90;;;;;;5032125;28;20659;-62
2022/04/03 04:40:26;;;;;;;8.57;5.03;;;-1.40;99.90;;;;;;5032842;28;20663;-61
2022/04/03 04:42:55;;;;;;;6.47;5.00;;;-1.40;99.90;;;;;;5028741;28;20284;-62
2022/04/03 04:45:25;;;;;;;9.97;6.27;;;-1.40;99.90;;;;;;5032636;28;20340;-61
2022/04/03 04:47:59;;;;;;;9.20;6.03;;;-1.40;99.90;;;;;;5031004;28;20193;-61
2022/04/03 04:50:28;;;;;;;14.40;6.43;;;-1.40;99.90;;;;;;5030387;28;20213;-62
2022/04/03 04:52:59;;;;;;;11.67;6.17;;;-1.50;99.90;;;;;;5035052;28;20201;-62
2022/04/03 04:55:27;;;;;;;16.57;7.00;;;-1.50;99.90;;;;;;5029608;28;20204;-61
2022/04/03 04:57:57;;;;;;;8.13;5.87;;;-1.50;99.90;;;;;;5032194;28;20788;-61
2022/04/03 05:00:28;;;;;;;11.30;5.13;;;-1.50;99.90;;;;;;5034072;28;20189;-61
2022/04/03 05:02:57;;;;;;;8.17;5.67;;;-1.50;99.90;;;;;;5032953;28;20201;-61
2022/04/03 05:05:28;;;;;;;8.17;5.63;;;-1.50;99.90;;;;;;5012979;28;20217;-61
2022/04/03 05:07:59;;;;;;;7.33;5.27;;;-1.60;99.90;;;;;;5013654;28;20189;-61
2022/04/03 05:10:31;;;;;;;6.80;5.03;;;-1.60;99.90;;;;;;5028267;28;20201;-61
2022/04/03 05:13:01;;;;;;;9.20;5.70;;;-1.70;99.90;;;;;;5031197;28;20201;-61
2022/04/03 05:15:30;;;;;;;9.07;5.23;;;-1.70;99.90;;;;;;5033306;28;20667;-61
2022/04/03 05:17:59;;;;;;;8.73;5.40;;;-1.80;99.90;;;;;;5014021;28;20589;-61
2022/04/03 05:20:28;;;;;;;7.53;5.70;;;-1.80;99.90;;;;;;5031733;28;20213;-63
2022/04/03 05:22:58;;;;;;;6.37;5.03;;;-1.80;99.90;;;;;;5013738;28;20806;-61
2022/04/03 05:25:27;;;;;;;8.03;5.63;;;-1.80;99.90;;;;;;5031381;28;20705;-61
2022/04/03 05:27:55;;;;;;;8.03;5.47;;;-1.90;99.90;;;;;;5037935;28;20201;-61
2022/04/03 05:30:24;;;;;;;11.93;5.63;;;-1.90;99.90;;;;;;5034459;28;20996;-61
2022/04/03 05:32:52;;;;;;;7.17;4.83;;;-1.90;99.90;;;;;;5036775;28;20288;-61
2022/04/03 05:35:20;;;;;;;7.57;5.40;;;-1.90;99.90;;;;;;5034670;28;20255;-61
2022/04/03 05:37:49;;;;;;;8.60;5.13;;;-1.90;99.90;;;;;;5036147;28;20255;-61
2022/04/03 05:40:19;;;;;;;6.20;5.40;;;-1.90;99.90;;;;;;5039592;28;20228;-61
2022/04/03 05:42:48;;;;;;;9.47;5.40;;;-1.90;99.90;;;;;;5040447;28;20213;-61
2022/04/03 05:45:17;;;;;;;6.90;6.20;;;-1.90;99.90;;;;;;5014674;28;20663;-61
2022/04/03 05:47:46;;;;;;;10.40;6.17;;;-1.80;99.90;;;;;;5034692;28;20741;-61
2022/04/03 05:50:15;;;;;;;7.17;5.57;;;-1.80;99.90;;;;;;5034259;28;20251;-61
2022/04/03 05:52:45;;;;;;;6.23;5.60;;;-1.70;99.90;;;;;;5034041;28;20735;-61
2022/04/03 05:55:16;;;;;;;9.13;5.17;;;-1.60;99.90;;;;;;5041556;28;20194;-62
2022/04/03 05:57:47;;;;;;;11.00;5.33;;;-1.50;99.90;;;;;;5041905;28;20193;-60
2022/04/03 06:00:19;;;;;;;9.27;5.17;;;-1.50;99.90;;;;;;5038832;28;20211;-61
2022/04/03 06:02:51;;;;;;;6.33;5.17;;;-1.40;99.90;;;;;;5035007;28;20201;-61
2022/04/03 06:05:22;;;;;;;6.50;4.90;;;-1.40;99.90;;;;;;5034245;28;20340;-61
2022/04/03 06:07:51;;;;;;;5.40;4.90;;;-1.30;99.90;;;;;;5031253;28;20713;-60
2022/04/03 06:10:21;;;;;;;7.70;5.20;;;-1.20;99.90;;;;;;5032865;28;20196;-60
2022/04/03 06:12:55;;;;;;;8.47;5.00;;;-1.10;99.90;;;;;;5037009;28;20720;-61
2022/04/03 06:15:24;;;;;;;7.13;5.17;;;-1.00;99.90;;;;;;5015058;28;20216;-61
2022/04/03 06:17:53;;;;;;;6.00;5.23;;;-0.80;99.90;;;;;;5035394;28;20811;-61
2022/04/03 06:20:23;;;;;;;6.20;4.83;;;-0.60;99.90;;;;;;5036961;28;20764;-61
2022/04/03 06:22:52;;;;;;;7.83;5.30;;;-0.40;99.90;;;;;;5014842;28;20189;-61
2022/04/03 06:25:21;;;;;;;7.33;5.00;;;-0.10;99.90;;;;;;5035453;28;20201;-61
2022/04/03 06:27:50;;;;;;;10.93;5.43;;;0.20;99.90;;;;;;5033709;28;20232;-61
2022/04/03 06:30:21;;;;;;;7.17;5.33;;;0.50;99.90;;;;;;5022100;28;20197;-61
2022/04/03 06:32:50;;;;;;;5.97;5.33;;;0.90;99.90;;;;;;5038673;28;20197;-61
2022/04/03 06:35:18;;;;;;;5.97;5.30;;;1.50;99.90;;;;;;5032999;28;20308;-61
2022/04/03 06:37:47;;;;;;;9.70;5.23;;;2.30;99.90;;;;;;5015377;28;20222;-61
2022/04/03 06:40:17;;;;;;;7.87;5.57;;;2.90;99.90;;;;;;5037720;28;20208;-62
2022/04/03 06:42:45;;;;;;;6.70;5.77;;;3.50;99.90;;;;;;5031268;28;20293;-62
2022/04/03 06:45:15;;;;;;;12.10;6.33;;;4.10;99.90;;;;;;5030885;28;20950;-62
2022/04/03 06:47:45;;;;;;;6.87;5.63;;;4.70;99.90;;;;;;5035628;28;20252;-63
2022/04/03 06:50:14;;;;;;;8.73;6.00;;;5.20;99.90;;;;;;5029519;28;20219;-62
2022/04/03 06:52:43;;;;;;;11.07;6.53;;;5.80;99.90;;;;;;5032858;28;20198;-62
2022/04/03 06:55:11;;;;;;;11.33;7.27;;;6.30;99.90;;;;;;5040989;28;20284;-63
2022/04/03 06:57:40;;;;;;;9.07;6.37;;;6.60;99.90;;;;;;5034265;28;20205;-63
2022/04/03 07:00:11;;;;;;;5.97;5.40;;;7.20;99.90;;;;;;5030465;28;20201;-63
2022/04/03 07:02:39;;;;;;;7.40;5.70;;;7.50;99.90;;;;;;5017520;28;20238;-62
2022/04/03 07:05:10;;;;;;;5.63;5.10;;;7.90;99.90;;;;;;5031179;28;20210;-63
2022/04/03 07:07:39;;;;;;;6.00;5.00;;;8.10;99.90;;;;;;5018129;28;20568;-63
2022/04/03 07:10:09;;;;;;;7.20;5.03;;;8.30;99.90;;;;;;5020959;28;20207;-63
2022/04/03 07:12:37;;;;;;;8.60;5.27;;;8.60;99.90;;;;;;5040450;28;20201;-63
2022/04/03 07:15:11;;;;;;;7.73;5.37;;;8.90;99.90;;;;;;5041219;28;20193;-63
2022/04/03 07:17:40;;;;;;;7.63;5.73;;;9.20;99.90;;;;;;5034661;28;20192;-63
2022/04/03 07:20:13;;;;;;;7.23;5.27;;;9.50;99.90;;;;;;5039362;28;20264;-63
2022/04/03 07:22:42;;;;;;;9.37;5.47;;;9.70;99.90;;;;;;5034994;28;20212;-63
2022/04/03 07:25:11;;;;;;;14.57;8.90;;;10.10;99.90;;;;;;5013874;28;20227;-63
2022/04/03 07:27:40;;;;;;;11.47;5.23;;;10.50;99.90;;;;;;5034753;28;20236;-63
2022/04/03 07:30:12;;;;;;;6.40;5.20;;;10.90;99.90;;;;;;5037416;28;20207;-63
2022/04/03 07:32:41;;;;;;;6.30;4.90;;;11.30;99.90;;;;;;5020636;28;20225;-63
2022/04/03 07:35:12;;;;;;;8.03;5.93;;;11.50;99.90;;;;;;5031111;28;20690;-63
2022/04/03 07:37:41;;;;;;;8.27;6.40;;;11.70;99.90;;;;;;5030675;28;20212;-63
2022/04/03 07:40:11;;;;;;;8.70;6.33;;;11.70;99.90;;;;;;5015246;28;20205;-63
2022/04/03 07:42:40;;;;;;;9.40;5.43;;;11.60;99.90;;;;;;5036648;28;20259;-63
2022/04/03 07:45:11;;;;;;;7.03;5.90;;;11.60;99.90;;;;;;5013502;28;20301;-63
2022/04/03 07:47:46;;;;;;;7.77;4.87;;;11.90;99.90;;;;;;5033876;28;20233;-63
2022/04/03 07:50:18;;;;;;;6.47;5.87;;;12.20;99.90;;;;;;5033454;28;20205;-63
2022/04/03 07:52:48;;;;;;;4.97;4.50;;;12.50;99.90;;;;;;5032219;28;20209;-63
2022/04/03 07:55:17;;;;;;;4.83;4.27;;;12.60;99.90;;;;;;5040662;28;20730;-63
2022/04/03 07:57:45;;;;;;;3.97;3.70;;;12.90;99.90;;;;;;5035362;28;20197;-64
2022/04/03 08:00:16;;;;;;;4.63;4.23;;;13.20;99.90;;;;;;5034584;28;20270;-64
2022/04/03 08:02:45;;;;;;;4.50;4.00;;;13.10;99.90;;;;;;5033912;28;20746;-63
2022/04/03 08:05:13;;;;;;;5.37;3.77;;;13.20;99.90;;;;;;5028981;28;20200;-63
2022/04/03 08:07:49;;;;;;;4.93;4.10;;;13.50;99.90;;;;;;5010908;28;20710;-64
2022/04/03 08:10:20;;;;;;;3.80;3.53;;;13.60;99.90;;;;;;5035724;28;20272;-64
2022/04/03 08:12:50;;;;;;;5.10;4.03;;;13.60;99.90;;;;;;5033189;28;20193;-63
2022/04/03 08:15:20;;;;;;;3.40;2.70;;;14.20;99.90;;;;;;5031122;28;20193;-64
2022/04/03 08:17:48;;;;;;;2.63;2.50;;;14.70;99.90;;;;;;5017253;28;20851;-63
2022/04/03 08:20:18;;;;;;;3.80;3.50;;;15.30;99.90;;;;;;5040075;28;20197;-64
2022/04/03 08:22:49;;;;;;;2.60;2.40;;;15.60;99.70;;;;;;5033499;28;20256;-64
2022/04/03 08:25:18;;;;;;;4.13;2.80;;;15.70;99.10;;;;;;5013164;28;20204;-64
2022/04/03 08:27:48;;;;;;;3.33;2.60;;;16.00;98.00;;;;;;5034953;28;20316;-63
2022/04/03 08:30:19;;;;;;;3.63;2.53;;;15.90;97.80;;;;;;5038118;28;20197;-64
2022/04/03 08:32:49;;;;;;;2.80;2.70;;;16.00;98.10;;;;;;5019940;28;20185;-63
2022/04/03 08:35:19;;;;;;;2.20;2.10;;;16.20;97.90;;;;;;5017802;28;20244;-63
2022/04/03 08:37:50;;;;;;;2.30;2.17;;;16.50;96.60;;;;;;5026170;28;20217;-64
2022/04/03 08:40:20;;;;;;;3.93;2.50;;;16.50;96.70;;;;;;5036609;28;20205;-64
2022/04/03 08:42:50;;;;;;;1.90;1.80;;;16.70;96.60;;;;;;5030005;28;20208;-64
2022/04/03 08:45:19;;;;;;;3.93;2.20;;;16.90;96.40;;;;;;5031267;28;20208;-64
2022/04/03 08:47:50;;;;;;;2.00;2.00;;;16.60;95.40;;;;;;5040625;28;20262;-64
2022/04/03 08:50:19;;;;;;;2.37;2.17;;;17.20;95.20;;;;;;5013783;28;20207;-64
2022/04/03 08:52:51;;;;;;;2.93;2.63;;;17.40;95.30;;;;;;5028301;28;20208;-64
2022/04/03 08:55:21;;;;;;;2.50;2.40;;;17.20;95.10;;;;;;5031467;28;20779;-64
2022/04/03 08:57:51;;;;;;;2.20;2.10;;;17.50;95.00;;;;;;5037337;28;20727;-64
2022/04/03 09:00:20;;;;;;;2.00;1.90;;;17.80;94.50;;;;;;5040266;28;20281;-64
2022/04/03 09:02:50;;;;;;;4.00;2.13;;;18.20;93.30;;;;;;5016148;28;20233;-64
2022/04/03 09:05:20;;;;;;;2.67;1.90;;;18.40;92.50;;;;;;5039686;28;20212;-64
2022/04/03 09:08:01;;;;;;;3.80;2.27;;;17.30;92.50;;;;;;5037840;28;20197;-64
2022/04/03 09:10:30;;;;;;;3.17;2.23;;;17.60;93.20;;;;;;5032258;28;20201;-64
2022/04/03 09:12:59;;;;;;;2.77;2.40;;;18.10;92.50;;;;;;5043182;28;20285;-64
2022/04/03 09:15:29;;;;;;;2.50;2.30;;;18.20;92.50;;;;;;5042404;28;20548;-64
2022/04/03 09:17:59;;;;;;;1.83;1.73;;;18.30;91.40;;;;;;5035942;28;20352;-64
2022/04/03 09:20:30;;;;;;;1.93;1.77;;;18.20;91.40;;;;;;5040201;28;20204;-64
2022/04/03 09:23:01;;;;;;;2.90;2.30;;;18.50;91.70;;;;;;5015558;28;20285;-64
2022/04/03 09:25:34;;;;;;;1.70;1.60;;;18.40;90.50;;;;;;5033228;28;20205;-63
2022/04/03 09:28:04;;;;;;;2.20;2.07;;;17.20;85.60;;;;;;5046759;28;20205;-63
2022/04/03 09:30:34;;;;;;;2.17;1.80;;;16.50;89.40;;;;;;5034927;28;20206;-63
2022/04/03 09:33:06;;;;;;;2.73;2.30;;;16.60;89.80;;;;;;5034279;28;20204;-63
2022/04/03 09:35:54;;;;;;;2.13;1.90;;;16.70;88.90;;;;;;5047012;28;20281;-63
2022/04/03 09:38:25;;;;;;;2.20;2.10;;;16.80;90.40;;;;;;5035571;28;20211;-64
2022/04/03 09:40:54;;;;;;;2.43;2.30;;;17.90;90.00;;;;;;5019877;28;20206;-64
2022/04/03 09:43:24;;;;;;;3.60;2.13;;;17.70;87.60;;;;;;5031803;28;20204;-64
2022/04/03 09:45:54;;;;;;;1.80;1.70;;;18.10;87.70;;;;;;5034122;28;20276;-64
2022/04/03 09:48:25;;;;;;;1.80;1.70;;;18.40;86.30;;;;;;5037762;28;20197;-63
2022/04/03 09:51:05;;;;;;;2.37;1.60;;;17.80;82.80;;;;;;5019196;28;20223;-64
2022/04/03 09:53:43;;;;;;;3.33;2.00;;;17.60;81.70;;;;;;5030958;28;20214;-63
2022/04/03 09:56:12;;;;;;;1.73;1.63;;;17.50;82.20;;;;;;5043010;28;20589;-63
2022/04/03 09:59:01;;;;;;;2.33;2.07;;;17.50;86.30;;;;;;5037756;28;20216;-63
2022/04/03 10:01:31;;;;;;;2.10;1.50;;;18.00;86.50;;;;;;5034673;28;20676;-63
2022/04/03 10:04:01;;;;;;;2.00;1.90;;;18.10;78.30;;;;;;5021975;28;20224;-63
2022/04/03 10:06:30;;;;;;;3.17;1.97;;;18.20;83.50;;;;;;5016520;28;20224;-63
2022/04/03 10:09:00;;;;;;;2.07;1.97;;;18.30;80.20;;;;;;5033015;28;20268;-63
2022/04/03 10:11:30;;;;;;;1.97;1.80;;;17.60;80.00;;;;;;5016733;28;20282;-63
2022/04/03 10:13:58;;;;;;;4.63;2.10;;;17.50;80.50;;;;;;5034106;28;20240;-63
2022/04/03 10:16:26;;;;;;;2.93;2.23;;;17.50;80.00;;;;;;5032605;28;20276;-63
2022/04/03 10:18:55;;;;;;;1.93;1.90;;;16.80;83.60;;;;;;5011422;28;20760;-63
2022/04/03 10:21:30;;;;;;;2.93;1.77;;;16.80;84.80;;;;;;5034267;28;20192;-62
2022/04/03 10:24:05;;;;;;;1.73;1.63;;;15.90;81.50;;;;;;5037250;28;20682;-62
2022/04/03 10:26:37;;;;;;;2.30;1.80;;;16.10;85.20;;;;;;5008578;28;20245;-63
2022/04/03 10:29:09;;;;;;;1.97;1.87;;;17.80;84.10;;;;;;4996017;28;21302;-63
2022/04/03 10:31:38;;;;;;;1.83;1.67;;;18.50;80.40;;;;;;5013365;28;20291;-63
2022/04/03 10:34:12;;;;;;;1.83;1.83;;;18.60;80.90;;;;;;5013728;28;20281;-62
2022/04/03 10:36:48;;;;;;;2.33;1.93;;;16.90;80.90;;;;;;5015165;28;20206;-62
2022/04/03 10:39:24;;;;;;;3.67;2.00;;;15.60;83.80;;;;;;5015607;28;20198;-62
2022/04/03 10:42:16;;;;;;;3.40;1.90;;;14.60;84.90;;;;;;5013838;28;20204;-62
2022/04/03 10:44:44;;;;;;;1.80;1.80;;;14.00;88.00;;;;;;5011802;28;20653;-63
2022/04/03 10:47:21;;;;;;;3.27;2.10;;;14.50;87.70;;;;;;4996036;28;20206;-63
2022/04/03 10:50:03;;;;;;;2.20;2.00;;;14.60;88.20;;;;;;4998798;28;20189;-63
2022/04/03 10:52:55;;;;;;;2.90;1.97;;;14.20;88.50;;;;;;5012354;28;20212;-62
2022/04/03 10:55:30;;;;;;;2.90;2.10;;;14.50;86.50;;;;;;5015456;28;20205;-62
2022/04/03 10:58:03;;;;;;;2.10;2.10;;;15.00;83.00;;;;;;5020138;28;20277;-62
2022/04/03 11:00:40;;;;;;;1.63;1.60;;;14.60;85.60;;;;;;5018400;28;20205;-62
2022/04/03 11:03:37;;;;;;;2.33;1.70;;;15.80;86.20;;;;;;5019252;28;20246;-62
2022/04/03 11:06:32;;;;;;;1.60;1.50;;;17.00;84.00;;;;;;5018904;28;20540;-63
2022/04/03 11:09:12;;;;;;;2.53;1.50;;;17.60;82.70;;;;;;4994602;28;20740;-62
2022/04/03 11:11:45;;;;;;;3.43;1.70;;;17.10;79.50;;;;;;5017922;28;20289;-63
2022/04/03 11:14:51;;;;;;;1.60;1.50;;;17.10;79.60;;;;;;5020203;28;20203;-62
2022/04/03 11:17:41;;;;;;;1.50;1.40;;;17.40;80.00;;;;;;5010112;28;20793;-63
2022/04/03 11:20:10;;;;;;;1.33;1.33;;;18.00;78.40;;;;;;5011830;28;20211;-65
2022/04/03 11:22:39;;;;;;;6.83;4.27;;;17.50;76.90;;;;;;5013671;28;20225;-62
2022/04/03 11:25:09;;;;;;;1.60;1.60;;;16.80;81.00;;;;;;5014640;28;20313;-62
2022/04/03 11:27:38;;;;;;;1.70;1.60;;;16.60;78.70;;;;;;5031028;28;20236;-62
2022/04/03 11:30:09;;;;;;;2.20;1.53;;;16.60;82.50;;;;;;5031467;28;20194;-62
2022/04/03 11:32:40;;;;;;;1.60;1.50;;;15.90;78.90;;;;;;5032770;28;20201;-62
2022/04/03 11:35:09;;;;;;;1.60;1.50;;;15.60;80.80;;;;;;5015388;28;20692;-62
2022/04/03 11:37:37;;;;;;;1.47;1.40;;;15.20;81.90;;;;;;5037649;28;20203;-62
2022/04/03 11:40:07;;;;;;;2.07;1.97;;;15.40;83.70;;;;;;5012734;28;20706;-62
2022/04/03 11:42:35;;;;;;;2.03;1.93;;;15.10;86.30;;;;;;5028510;28;20678;-62
2022/04/03 11:45:09;;;;;;;3.03;1.80;;;14.60;86.60;;;;;;5031325;28;20712;-63
2022/04/03 11:47:37;;;;;;;1.87;1.77;;;14.10;87.10;;;;;;5029371;28;20296;-62
2022/04/03 11:50:08;;;;;;;3.27;2.10;;;13.60;88.80;;;;;;5033174;28;20853;-62
2022/04/03 11:52:38;;;;;;;2.10;1.70;;;13.20;88.70;;;;;;5032044;28;20260;-62
2022/04/03 11:55:11;;;;;;;2.00;1.90;;;13.00;90.00;;;;;;5015001;28;20647;-62
2022/04/03 11:57:40;;;;;;;2.20;1.93;;;13.00;90.00;;;;;;5033723;28;20288;-62
2022/04/03 12:00:11;;;;;;;1.90;1.80;;;13.30;89.90;;;;;;5034518;28;20690;-62
2022/04/03 12:02:42;;;;;;;1.60;1.50;;;14.10;88.70;;;;;;5031628;28;20284;-62
2022/04/03 12:05:11;;;;;;;1.73;1.63;;;14.40;88.40;;;;;;5013553;28;20205;-62
2022/04/03 12:07:39;;;;;;;1.87;1.50;;;14.30;86.60;;;;;;5028148;28;20328;-62
2022/04/03 12:10:08;;;;;;;2.00;1.70;;;14.20;86.40;;;;;;5032231;28;20753;-62
2022/04/03 12:12:39;;;;;;;1.80;1.53;;;13.50;83.50;;;;;;5031274;28;20691;-62
2022/04/03 12:15:14;;;;;;;5.17;1.90;;;12.80;87.50;;;;;;5026674;28;20915;-61
2022/04/03 12:17:43;;;;;;;1.67;1.57;;;13.00;89.90;;;;;;5034451;28;20254;-64
2022/04/03 12:20:13;;;;;;;2.93;1.80;;;13.10;88.50;;;;;;5032817;28;20221;-63
2022/04/03 12:22:43;;;;;;;2.10;1.90;;;13.20;89.60;;;;;;5034940;28;20228;-62
2022/04/03 12:25:12;;;;;;;1.67;1.67;;;13.20;88.90;;;;;;5030462;28;20246;-62
2022/04/03 12:27:41;;;;;;;3.70;1.70;;;13.00;86.50;;;;;;5027907;28;20752;-61
2022/04/03 12:30:12;;;;;;;1.70;1.67;;;12.70;90.30;;;;;;5030661;28;20200;-62
2022/04/03 12:32:41;;;;;;;3.00;1.60;;;12.50;86.60;;;;;;5031703;28;20640;-62
2022/04/03 12:35:11;;;;;;;1.57;1.47;;;12.10;89.30;;;;;;5031359;28;20766;-62
2022/04/03 12:37:42;;;;;;;1.77;1.67;;;11.90;90.10;;;;;;5038242;28;20710;-61
2022/04/03 12:40:15;;;;;;;2.40;1.70;;;11.70;90.70;;;;;;5027054;28;20213;-61
2022/04/03 12:42:45;;;;;;;3.77;2.10;;;11.50;91.90;;;;;;5028247;28;20221;-62
2022/04/03 12:45:20;;;;;;;2.80;2.50;;;11.10;92.50;;;;;;5041865;28;20658;-62
2022/04/03 12:47:50;;;;;;;2.97;2.70;;;10.80;93.20;;;;;;5036414;28;20200;-61
2022/04/03 12:50:24;;;;;;;3.50;2.80;;;10.60;94.60;;;;;;5038277;28;20238;-62
2022/04/03 12:52:57;;;;;;;3.00;2.80;;;10.50;95.20;;;;;;5037877;28;20236;-62
2022/04/03 12:55:41;;;;;;;2.80;2.60;;;10.50;95.00;;;;;;5039633;28;20220;-61
2022/04/03 12:58:28;;;;;;;2.70;2.50;;;10.50;95.80;;;;;;5011118;28;20201;-62
2022/04/03 13:01:06;;;;;;;2.50;2.30;;;10.50;95.40;;;;;;5034667;28;20582;-61
2022/04/03 13:03:38;;;;;;;4.23;2.30;;;10.30;94.90;;;;;;5018924;28;20188;-61
2022/04/03 13:06:09;;;;;;;3.67;3.40;;;10.30;94.80;;;;;;5029891;28;20698;-62